PWSweather.com
Personal Weather Stations
Station Observations
RIORANCHO
Corrales Heights, Rio Rancho, NM 87124

Corrales HeightsRio Rancho, NM 87124

Lat: 35.241928, Lon: -106.647095

Elevation: 5297

Station Type: Davis Vantage Pro 2 Plus

http://www.weatherriorancho.com

High Low Average
Temperature 55.5°F13.1°C 25.2°F-3.8°C 39.6°F4.2°C
Dew Point 25.2°F-3.8°C 18.7°F-7.4°C 22.0°F-5.6°C
Winds 6.9 mph 11.1 kmh Calm Calm Calm WSWCalm WSW
Wind Gusts 11.5 mph18.5 kmh -- 1.0 mph1.6 kmh
Humidity 78% 28% 52%
Pressure 30.44 in1030.8 mb 30.30 in1026.1 mb -
Precipitation 0.00 in0.0 mm - -
Hour Temp Dew Point Humidity Winds Wind Gusts Pressure Precip Precip Rate Daily Precip Total
12:00 AM 39.6°F4.2°C 24.3°F-4.3°C 54% 1.2 mph NNW1.9 kmh NNW 4.6 mph7.4 kmh 30.36 in1028.1 mb - 0.00 in0.0 mm 0.00 in0.0 mm
12:10 AM 38.7°F3.7°C 24.3°F-4.3°C 56% 3.5 mph NW5.6 kmh NW 8.1 mph13.0 kmh 30.36 in1028.1 mb - 0.00 in0.0 mm 0.00 in0.0 mm
12:20 AM 38.5°F3.6°C 24.6°F-4.1°C 57% Calm Calm -- 30.36 in1028.1 mb - 0.00 in0.0 mm 0.00 in0.0 mm
12:30 AM 38.3°F3.5°C 24.0°F-4.4°C 56% Calm Calm -- 30.36 in1028.1 mb - 0.00 in0.0 mm 0.00 in0.0 mm
12:40 AM 37.6°F3.1°C 24.2°F-4.3°C 58% Calm Calm -- 30.36 in1028.1 mb - 0.00 in0.0 mm 0.00 in0.0 mm
12:50 AM 37.2°F2.9°C 23.7°F-4.6°C 58% Calm Calm -- 30.36 in1028.1 mb - 0.00 in0.0 mm 0.00 in0.0 mm
01:00 AM 36.3°F2.4°C 23.7°F-4.6°C 60% Calm Calm -- 30.36 in1028.1 mb - 0.00 in0.0 mm 0.00 in0.0 mm
01:10 AM 35.9°F2.2°C 23.4°F-4.8°C 60% Calm Calm -- 30.36 in1028.1 mb - 0.00 in0.0 mm 0.00 in0.0 mm
01:20 AM 35.2°F1.8°C 22.7°F-5.2°C 60% Calm Calm -- 30.36 in1028.1 mb - 0.00 in0.0 mm 0.00 in0.0 mm
01:30 AM 34.7°F1.5°C 23.0°F-5.0°C 62% 1.2 mph NW1.9 kmh NW 2.3 mph3.7 kmh 30.35 in1027.8 mb - 0.00 in0.0 mm 0.00 in0.0 mm
01:40 AM 34.8°F1.6°C 23.5°F-4.7°C 63% 1.2 mph NW1.9 kmh NW 2.3 mph3.7 kmh 30.36 in1028.1 mb - 0.00 in0.0 mm 0.00 in0.0 mm
01:50 AM 35.5°F1.9°C 24.1°F-4.4°C 63% Calm Calm 1.2 mph1.9 kmh 30.36 in1028.1 mb - 0.00 in0.0 mm 0.00 in0.0 mm
02:00 AM 35.2°F1.8°C 23.5°F-4.7°C 62% Calm Calm -- 30.36 in1028.1 mb - 0.00 in0.0 mm 0.00 in0.0 mm
02:10 AM 34.6°F1.4°C 23.3°F-4.8°C 63% Calm Calm -- 30.36 in1028.1 mb - 0.00 in0.0 mm 0.00 in0.0 mm
02:20 AM 34.1°F1.2°C 23.2°F-4.9°C 64% Calm Calm -- 30.36 in1028.1 mb - 0.00 in0.0 mm 0.00 in0.0 mm
02:30 AM 33.8°F1.0°C 22.9°F-5.1°C 64% Calm Calm -- 30.36 in1028.1 mb - 0.00 in0.0 mm 0.00 in0.0 mm
02:40 AM 33.5°F0.8°C 23.0°F-5.0°C 65% Calm Calm -- 30.36 in1028.1 mb - 0.00 in0.0 mm 0.00 in0.0 mm
02:50 AM 33.2°F0.7°C 22.7°F-5.2°C 65% Calm Calm -- 30.36 in1028.1 mb - 0.00 in0.0 mm 0.00 in0.0 mm
03:00 AM 32.8°F0.4°C 22.3°F-5.4°C 65% Calm Calm -- 30.36 in1028.1 mb - 0.00 in0.0 mm 0.00 in0.0 mm
03:10 AM 32.3°F0.2°C 22.2°F-5.4°C 66% Calm Calm -- 30.37 in1028.4 mb - 0.00 in0.0 mm 0.00 in0.0 mm
03:20 AM 31.7°F-0.2°C 22.3°F-5.4°C 68% Calm Calm 1.2 mph1.9 kmh 30.37 in1028.4 mb - 0.00 in0.0 mm 0.00 in0.0 mm
03:30 AM 31.7°F-0.2°C 22.6°F-5.2°C 69% Calm Calm 2.3 mph3.7 kmh 30.38 in1028.8 mb - 0.00 in0.0 mm 0.00 in0.0 mm
03:40 AM 31.6°F-0.2°C 22.9°F-5.1°C 70% Calm Calm -- 30.38 in1028.8 mb - 0.00 in0.0 mm 0.00 in0.0 mm
03:50 AM 31.5°F-0.3°C 22.5°F-5.3°C 69% Calm Calm -- 30.38 in1028.8 mb - 0.00 in0.0 mm 0.00 in0.0 mm
04:00 AM 31.2°F-0.4°C 22.5°F-5.3°C 70% Calm Calm 1.2 mph1.9 kmh 30.38 in1028.8 mb - 0.00 in0.0 mm 0.00 in0.0 mm
04:10 AM 30.9°F-0.6°C 22.3°F-5.4°C 70% Calm Calm -- 30.39 in1029.1 mb - 0.00 in0.0 mm 0.00 in0.0 mm
04:20 AM 30.4°F-0.9°C 22.1°F-5.5°C 71% Calm Calm 1.2 mph1.9 kmh 30.39 in1029.1 mb - 0.00 in0.0 mm 0.00 in0.0 mm
04:30 AM 30.3°F-0.9°C 22.0°F-5.6°C 71% Calm Calm -- 30.39 in1029.1 mb - 0.00 in0.0 mm 0.00 in0.0 mm
04:40 AM 30.0°F-1.1°C 22.1°F-5.5°C 72% Calm Calm -- 30.40 in1029.5 mb - 0.00 in0.0 mm 0.00 in0.0 mm
04:50 AM 29.8°F-1.2°C 21.9°F-5.6°C 72% Calm Calm -- 30.39 in1029.1 mb - 0.00 in0.0 mm 0.00 in0.0 mm
05:00 AM 29.6°F-1.3°C 21.6°F-5.8°C 72% Calm Calm -- 30.40 in1029.5 mb - 0.00 in0.0 mm 0.00 in0.0 mm
05:10 AM 29.2°F-1.6°C 21.3°F-5.9°C 72% Calm Calm -- 30.39 in1029.1 mb - 0.00 in0.0 mm 0.00 in0.0 mm
05:20 AM 28.9°F-1.7°C 21.0°F-6.1°C 72% Calm Calm -- 30.39 in1029.1 mb - 0.00 in0.0 mm 0.00 in0.0 mm
05:30 AM 28.6°F-1.9°C 20.7°F-6.3°C 72% Calm Calm -- 30.39 in1029.1 mb - 0.00 in0.0 mm 0.00 in0.0 mm
05:40 AM 28.4°F-2.0°C 20.5°F-6.4°C 72% Calm Calm -- 30.39 in1029.1 mb - 0.00 in0.0 mm 0.00 in0.0 mm
05:50 AM 28.1°F-2.2°C 20.2°F-6.6°C 72% Calm Calm -- 30.39 in1029.1 mb - 0.00 in0.0 mm 0.00 in0.0 mm
06:00 AM 27.8°F-2.3°C 19.9°F-6.7°C 72% Calm Calm -- 30.39 in1029.1 mb - 0.00 in0.0 mm 0.00 in0.0 mm
06:10 AM 27.5°F-2.5°C 20.0°F-6.7°C 73% Calm Calm -- 30.40 in1029.5 mb - 0.00 in0.0 mm 0.00 in0.0 mm
06:20 AM 27.1°F-2.7°C 19.9°F-6.7°C 74% Calm Calm -- 30.40 in1029.5 mb - 0.00 in0.0 mm 0.00 in0.0 mm
06:30 AM 26.9°F-2.8°C 19.7°F-6.8°C 74% Calm Calm 1.2 mph1.9 kmh 30.40 in1029.5 mb - 0.00 in0.0 mm 0.00 in0.0 mm
06:40 AM 26.6°F-3.0°C 19.8°F-6.8°C 75% Calm Calm -- 30.41 in1029.8 mb - 0.00 in0.0 mm 0.00 in0.0 mm
06:50 AM 26.5°F-3.1°C 20.0°F-6.7°C 76% Calm Calm -- 30.41 in1029.8 mb - 0.00 in0.0 mm 0.00 in0.0 mm
07:00 AM 26.5°F-3.1°C 20.0°F-6.7°C 76% Calm Calm 1.2 mph1.9 kmh 30.41 in1029.8 mb - 0.00 in0.0 mm 0.00 in0.0 mm
07:10 AM 26.4°F-3.1°C 19.9°F-6.7°C 76% Calm Calm -- 30.41 in1029.8 mb - 0.00 in0.0 mm 0.00 in0.0 mm
07:20 AM 26.5°F-3.1°C 19.9°F-6.7°C 76% Calm Calm -- 30.41 in1029.8 mb - 0.00 in0.0 mm 0.00 in0.0 mm
07:30 AM 26.5°F-3.1°C 20.0°F-6.7°C 76% Calm Calm 1.2 mph1.9 kmh 30.41 in1029.8 mb - 0.00 in0.0 mm 0.00 in0.0 mm
07:40 AM 26.4°F-3.1°C 19.6°F-6.9°C 75% Calm Calm -- 30.42 in1030.1 mb - 0.00 in0.0 mm 0.00 in0.0 mm
07:50 AM 26.3°F-3.2°C 19.4°F-7.0°C 75% Calm Calm -- 30.42 in1030.1 mb - 0.00 in0.0 mm 0.00 in0.0 mm
08:00 AM 26.0°F-3.3°C 19.2°F-7.1°C 75% Calm Calm -- 30.42 in1030.1 mb - 0.00 in0.0 mm 0.00 in0.0 mm
08:10 AM 25.7°F-3.5°C 18.9°F-7.3°C 75% Calm Calm -- 30.41 in1029.8 mb - 0.00 in0.0 mm 0.00 in0.0 mm
08:20 AM 25.5°F-3.6°C 19.0°F-7.2°C 76% Calm Calm -- 30.41 in1029.8 mb - 0.00 in0.0 mm 0.00 in0.0 mm
08:30 AM 25.4°F-3.7°C 18.9°F-7.3°C 76% Calm Calm -- 30.42 in1030.1 mb - 0.00 in0.0 mm 0.00 in0.0 mm
08:40 AM 25.2°F-3.8°C 18.7°F-7.4°C 76% Calm Calm -- 30.42 in1030.1 mb - 0.00 in0.0 mm 0.00 in0.0 mm
08:50 AM 25.2°F-3.8°C 19.0°F-7.2°C 77% Calm Calm -- 30.42 in1030.1 mb - 0.00 in0.0 mm 0.00 in0.0 mm
09:00 AM 26.1°F-3.3°C 20.2°F-6.6°C 78% Calm Calm 2.3 mph3.7 kmh 30.42 in1030.1 mb - 0.00 in0.0 mm 0.00 in0.0 mm
09:10 AM 27.4°F-2.6°C 21.1°F-6.1°C 77% Calm Calm -- 30.42 in1030.1 mb - 0.00 in0.0 mm 0.00 in0.0 mm
09:20 AM 28.8°F-1.8°C 21.9°F-5.6°C 75% Calm Calm -- 30.42 in1030.1 mb - 0.00 in0.0 mm 0.00 in0.0 mm
09:30 AM 30.4°F-0.9°C 22.1°F-5.5°C 71% 1.2 mph NW1.9 kmh NW 2.3 mph3.7 kmh 30.42 in1030.1 mb - 0.00 in0.0 mm 0.00 in0.0 mm
09:40 AM 31.3°F-0.4°C 22.0°F-5.6°C 68% Calm Calm 1.2 mph1.9 kmh 30.43 in1030.5 mb - 0.00 in0.0 mm 0.00 in0.0 mm
09:50 AM 32.1°F0.1°C 21.7°F-5.7°C 65% Calm Calm -- 30.43 in1030.5 mb - 0.00 in0.0 mm 0.00 in0.0 mm
10:00 AM 33.2°F0.7°C 22.3°F-5.4°C 64% Calm Calm -- 30.43 in1030.5 mb - 0.00 in0.0 mm 0.00 in0.0 mm
10:10 AM 34.1°F1.2°C 22.5°F-5.3°C 62% Calm Calm -- 30.43 in1030.5 mb - 0.00 in0.0 mm 0.00 in0.0 mm
10:20 AM 34.8°F1.6°C 22.7°F-5.2°C 61% Calm Calm -- 30.43 in1030.5 mb - 0.00 in0.0 mm 0.00 in0.0 mm
10:30 AM 35.9°F2.2°C 23.0°F-5.0°C 59% Calm Calm -- 30.43 in1030.5 mb - 0.00 in0.0 mm 0.00 in0.0 mm
10:40 AM 36.6°F2.6°C 22.8°F-5.1°C 57% Calm Calm -- 30.43 in1030.5 mb - 0.00 in0.0 mm 0.00 in0.0 mm
10:50 AM 37.4°F3.0°C 23.1°F-4.9°C 56% Calm Calm -- 30.43 in1030.5 mb - 0.00 in0.0 mm 0.00 in0.0 mm
11:00 AM 37.8°F3.2°C 22.6°F-5.2°C 54% 1.2 mph NNE1.9 kmh NNE 4.6 mph7.4 kmh 30.44 in1030.8 mb - 0.00 in0.0 mm 0.00 in0.0 mm
11:10 AM 38.4°F3.6°C 22.7°F-5.2°C 53% 2.3 mph NNE3.7 kmh NNE 4.6 mph7.4 kmh 30.44 in1030.8 mb - 0.00 in0.0 mm 0.00 in0.0 mm
11:20 AM 39.2°F4.0°C 23.0°F-5.0°C 52% Calm Calm 2.3 mph3.7 kmh 30.43 in1030.5 mb - 0.00 in0.0 mm 0.00 in0.0 mm
11:30 AM 40.5°F4.7°C 23.3°F-4.8°C 50% Calm Calm 1.2 mph1.9 kmh 30.43 in1030.5 mb - 0.00 in0.0 mm 0.00 in0.0 mm
11:40 AM 40.9°F4.9°C 23.2°F-4.9°C 49% Calm Calm 1.2 mph1.9 kmh 30.43 in1030.5 mb - 0.00 in0.0 mm 0.00 in0.0 mm
11:50 AM 42.3°F5.7°C 23.5°F-4.7°C 47% Calm Calm -- 30.43 in1030.5 mb - 0.00 in0.0 mm 0.00 in0.0 mm
12:00 PM 43.7°F6.5°C 23.7°F-4.6°C 45% Calm Calm -- 30.42 in1030.1 mb - 0.00 in0.0 mm 0.00 in0.0 mm
12:10 PM 46.3°F7.9°C 25.0°F-3.9°C 43% Calm Calm -- 30.42 in1030.1 mb - 0.00 in0.0 mm 0.00 in0.0 mm
12:20 PM 47.1°F8.4°C 25.2°F-3.8°C 42% Calm Calm -- 30.41 in1029.8 mb - 0.00 in0.0 mm 0.00 in0.0 mm
12:30 PM 46.1°F7.8°C 24.2°F-4.3°C 42% Calm Calm -- 30.41 in1029.8 mb - 0.00 in0.0 mm 0.00 in0.0 mm
12:40 PM 47.5°F8.6°C 24.9°F-3.9°C 41% Calm Calm -- 30.40 in1029.5 mb - 0.00 in0.0 mm 0.00 in0.0 mm
12:50 PM 47.3°F8.5°C 24.7°F-4.1°C 41% Calm Calm -- 30.39 in1029.1 mb - 0.00 in0.0 mm 0.00 in0.0 mm
01:00 PM 47.5°F8.6°C 24.9°F-3.9°C 41% Calm Calm 1.2 mph1.9 kmh 30.39 in1029.1 mb - 0.00 in0.0 mm 0.00 in0.0 mm
01:10 PM 48.2°F9.0°C 25.0°F-3.9°C 40% 1.2 mph SE1.9 kmh SE 4.6 mph7.4 kmh 30.38 in1028.8 mb - 0.00 in0.0 mm 0.00 in0.0 mm
01:20 PM 48.6°F9.2°C 24.7°F-4.1°C 39% Calm Calm 1.2 mph1.9 kmh 30.38 in1028.8 mb - 0.00 in0.0 mm 0.00 in0.0 mm
01:30 PM 48.7°F9.3°C 24.8°F-4.0°C 39% Calm Calm 1.2 mph1.9 kmh 30.36 in1028.1 mb - 0.00 in0.0 mm 0.00 in0.0 mm
01:40 PM 48.7°F9.3°C 24.2°F-4.3°C 38% 1.2 mph SSE1.9 kmh SSE 5.8 mph9.3 kmh 30.36 in1028.1 mb - 0.00 in0.0 mm 0.00 in0.0 mm
01:50 PM 49.0°F9.4°C 24.4°F-4.2°C 38% 2.3 mph S3.7 kmh S 5.8 mph9.3 kmh 30.35 in1027.8 mb - 0.00 in0.0 mm 0.00 in0.0 mm
02:00 PM 48.8°F9.3°C 23.7°F-4.6°C 37% 1.2 mph S1.9 kmh S 3.5 mph5.6 kmh 30.35 in1027.8 mb - 0.00 in0.0 mm 0.00 in0.0 mm
02:10 PM 49.1°F9.5°C 24.0°F-4.4°C 37% 1.2 mph SSW1.9 kmh SSW 6.9 mph11.1 kmh 30.34 in1027.4 mb - 0.00 in0.0 mm 0.00 in0.0 mm
02:20 PM 49.6°F9.8°C 23.7°F-4.6°C 36% Calm Calm 3.5 mph5.6 kmh 30.34 in1027.4 mb - 0.00 in0.0 mm 0.00 in0.0 mm
02:30 PM 50.0°F10.0°C 23.3°F-4.8°C 35% 1.2 mph S1.9 kmh S 1.2 mph1.9 kmh 30.33 in1027.1 mb - 0.00 in0.0 mm 0.00 in0.0 mm
02:40 PM 50.8°F10.4°C 23.4°F-4.8°C 34% 1.2 mph SE1.9 kmh SE 3.5 mph5.6 kmh 30.33 in1027.1 mb - 0.00 in0.0 mm 0.00 in0.0 mm
02:50 PM 51.2°F10.7°C 23.8°F-4.6°C 34% 1.2 mph SSE1.9 kmh SSE 3.5 mph5.6 kmh 30.32 in1026.8 mb - 0.00 in0.0 mm 0.00 in0.0 mm
03:00 PM 51.7°F10.9°C 23.5°F-4.7°C 33% 1.2 mph SSE1.9 kmh SSE 4.6 mph7.4 kmh 30.32 in1026.8 mb - 0.00 in0.0 mm 0.00 in0.0 mm
03:10 PM 52.3°F11.3°C 23.3°F-4.8°C 32% 1.2 mph SE1.9 kmh SE 2.3 mph3.7 kmh 30.31 in1026.4 mb - 0.00 in0.0 mm 0.00 in0.0 mm
03:20 PM 52.1°F11.2°C 23.1°F-4.9°C 32% 1.2 mph SE1.9 kmh SE 4.6 mph7.4 kmh 30.31 in1026.4 mb - 0.00 in0.0 mm 0.00 in0.0 mm
03:30 PM 52.6°F11.4°C 23.5°F-4.7°C 32% 1.2 mph SE1.9 kmh SE 3.5 mph5.6 kmh 30.31 in1026.4 mb - 0.00 in0.0 mm 0.00 in0.0 mm
03:40 PM 52.6°F11.4°C 23.5°F-4.7°C 32% Calm Calm -- 30.31 in1026.4 mb - 0.00 in0.0 mm 0.00 in0.0 mm
03:50 PM 52.6°F11.4°C 22.8°F-5.1°C 31% Calm Calm 1.2 mph1.9 kmh 30.31 in1026.4 mb - 0.00 in0.0 mm 0.00 in0.0 mm
04:00 PM 53.3°F11.8°C 22.6°F-5.2°C 30% 1.2 mph S1.9 kmh S 3.5 mph5.6 kmh 30.31 in1026.4 mb - 0.00 in0.0 mm 0.00 in0.0 mm
04:10 PM 53.4°F11.9°C 22.7°F-5.2°C 30% Calm Calm 2.3 mph3.7 kmh 30.31 in1026.4 mb - 0.00 in0.0 mm 0.00 in0.0 mm
04:20 PM 53.9°F12.2°C 23.1°F-4.9°C 30% Calm Calm -- 30.31 in1026.4 mb - 0.00 in0.0 mm 0.00 in0.0 mm
04:30 PM 54.1°F12.3°C 22.5°F-5.3°C 29% Calm Calm 2.3 mph3.7 kmh 30.31 in1026.4 mb - 0.00 in0.0 mm 0.00 in0.0 mm
04:40 PM 55.5°F13.1°C 22.9°F-5.1°C 28% Calm Calm -- 30.31 in1026.4 mb - 0.00 in0.0 mm 0.00 in0.0 mm
04:50 PM 54.8°F12.7°C 22.3°F-5.4°C 28% Calm Calm 3.5 mph5.6 kmh 30.31 in1026.4 mb - 0.00 in0.0 mm 0.00 in0.0 mm
05:00 PM 54.7°F12.6°C 22.2°F-5.4°C 28% Calm Calm -- 30.31 in1026.4 mb - 0.00 in0.0 mm 0.00 in0.0 mm
05:10 PM 54.9°F12.7°C 22.3°F-5.4°C 28% Calm Calm -- 30.31 in1026.4 mb - 0.00 in0.0 mm 0.00 in0.0 mm
05:20 PM 54.2°F12.3°C 22.6°F-5.2°C 29% Calm Calm -- 30.30 in1026.1 mb - 0.00 in0.0 mm 0.00 in0.0 mm
05:30 PM 53.7°F12.1°C 21.3°F-5.9°C 28% Calm Calm -- 30.30 in1026.1 mb - 0.00 in0.0 mm 0.00 in0.0 mm
05:40 PM 53.1°F11.7°C 21.6°F-5.8°C 29% Calm Calm -- 30.31 in1026.4 mb - 0.00 in0.0 mm 0.00 in0.0 mm
05:50 PM 52.4°F11.3°C 21.8°F-5.7°C 30% Calm Calm -- 30.30 in1026.1 mb - 0.00 in0.0 mm 0.00 in0.0 mm
06:00 PM 52.1°F11.2°C 21.5°F-5.8°C 30% Calm Calm -- 30.31 in1026.4 mb - 0.00 in0.0 mm 0.00 in0.0 mm
06:10 PM 51.1°F10.6°C 21.5°F-5.8°C 31% Calm Calm -- 30.31 in1026.4 mb - 0.00 in0.0 mm 0.00 in0.0 mm
06:20 PM 50.5°F10.3°C 21.0°F-6.1°C 31% Calm Calm -- 30.31 in1026.4 mb - 0.00 in0.0 mm 0.00 in0.0 mm
06:30 PM 50.4°F10.2°C 21.6°F-5.8°C 32% Calm Calm -- 30.31 in1026.4 mb - 0.00 in0.0 mm 0.00 in0.0 mm
06:40 PM 49.9°F9.9°C 21.2°F-6.0°C 32% Calm Calm -- 30.31 in1026.4 mb - 0.00 in0.0 mm 0.00 in0.0 mm
06:50 PM 49.2°F9.6°C 21.3°F-5.9°C 33% Calm Calm -- 30.31 in1026.4 mb - 0.00 in0.0 mm 0.00 in0.0 mm
07:00 PM 48.2°F9.0°C 20.4°F-6.4°C 33% Calm Calm -- 30.31 in1026.4 mb - 0.00 in0.0 mm 0.00 in0.0 mm
07:10 PM 47.8°F8.8°C 20.8°F-6.2°C 34% Calm Calm -- 30.31 in1026.4 mb - 0.00 in0.0 mm 0.00 in0.0 mm
07:20 PM 47.4°F8.6°C 20.4°F-6.4°C 34% Calm Calm -- 30.31 in1026.4 mb - 0.00 in0.0 mm 0.00 in0.0 mm
07:30 PM 46.3°F7.9°C 20.8°F-6.2°C 36% Calm Calm -- 30.32 in1026.8 mb - 0.00 in0.0 mm 0.00 in0.0 mm
07:40 PM 45.2°F7.3°C 20.4°F-6.4°C 37% Calm Calm -- 30.32 in1026.8 mb - 0.00 in0.0 mm 0.00 in0.0 mm
07:50 PM 44.6°F7.0°C 19.9°F-6.7°C 37% Calm Calm -- 30.32 in1026.8 mb - 0.00 in0.0 mm 0.00 in0.0 mm
08:00 PM 43.6°F6.4°C 20.3°F-6.5°C 39% Calm Calm -- 30.32 in1026.8 mb - 0.00 in0.0 mm 0.00 in0.0 mm
08:10 PM 43.2°F6.2°C 20.5°F-6.4°C 40% Calm Calm -- 30.33 in1027.1 mb - 0.00 in0.0 mm 0.00 in0.0 mm
08:20 PM 42.5°F5.8°C 19.8°F-6.8°C 40% Calm Calm 2.3 mph3.7 kmh 30.33 in1027.1 mb - 0.00 in0.0 mm 0.00 in0.0 mm
08:30 PM 41.8°F5.4°C 19.8°F-6.8°C 41% 1.2 mph SW1.9 kmh SW 2.3 mph3.7 kmh 30.33 in1027.1 mb - 0.00 in0.0 mm 0.00 in0.0 mm
08:40 PM 41.1°F5.1°C 19.7°F-6.8°C 42% 2.3 mph WSW3.7 kmh WSW 4.6 mph7.4 kmh 30.34 in1027.4 mb - 0.00 in0.0 mm 0.00 in0.0 mm
08:50 PM 41.1°F5.1°C 20.3°F-6.5°C 43% 2.3 mph WSW3.7 kmh WSW 3.5 mph5.6 kmh 30.33 in1027.1 mb - 0.00 in0.0 mm 0.00 in0.0 mm
09:00 PM 41.5°F5.3°C 20.6°F-6.3°C 43% 3.5 mph W5.6 kmh W 8.1 mph13.0 kmh 30.33 in1027.1 mb - 0.00 in0.0 mm 0.00 in0.0 mm
09:10 PM 41.7°F5.4°C 21.4°F-5.9°C 44% 3.5 mph W5.6 kmh W 6.9 mph11.1 kmh 30.33 in1027.1 mb - 0.00 in0.0 mm 0.00 in0.0 mm
09:20 PM 41.3°F5.2°C 21.0°F-6.1°C 44% 2.3 mph W3.7 kmh W 4.6 mph7.4 kmh 30.33 in1027.1 mb - 0.00 in0.0 mm 0.00 in0.0 mm
09:30 PM 40.7°F4.8°C 20.5°F-6.4°C 44% 1.2 mph W1.9 kmh W 3.5 mph5.6 kmh 30.34 in1027.4 mb - 0.00 in0.0 mm 0.00 in0.0 mm
09:40 PM 40.7°F4.8°C 21.0°F-6.1°C 45% 2.3 mph W3.7 kmh W 3.5 mph5.6 kmh 30.34 in1027.4 mb - 0.00 in0.0 mm 0.00 in0.0 mm
09:50 PM 41.7°F5.4°C 21.9°F-5.6°C 45% 6.9 mph WNW11.1 kmh WNW 11.5 mph18.5 kmh 30.34 in1027.4 mb - 0.00 in0.0 mm 0.00 in0.0 mm
10:00 PM 42.6°F5.9°C 22.2°F-5.4°C 44% 6.9 mph WNW11.1 kmh WNW 11.5 mph18.5 kmh 30.34 in1027.4 mb - 0.00 in0.0 mm 0.00 in0.0 mm
10:10 PM 42.5°F5.8°C 22.1°F-5.5°C 44% 4.6 mph W7.4 kmh W 8.1 mph13.0 kmh 30.34 in1027.4 mb - 0.00 in0.0 mm 0.00 in0.0 mm
10:20 PM 42.0°F5.6°C 22.2°F-5.4°C 45% 1.2 mph W1.9 kmh W 3.5 mph5.6 kmh 30.34 in1027.4 mb - 0.00 in0.0 mm 0.00 in0.0 mm
10:30 PM 41.8°F5.4°C 22.0°F-5.6°C 45% 1.2 mph W1.9 kmh W 1.2 mph1.9 kmh 30.34 in1027.4 mb - 0.00 in0.0 mm 0.00 in0.0 mm
10:40 PM 41.3°F5.2°C 22.0°F-5.6°C 46% Calm Calm 3.5 mph5.6 kmh 30.34 in1027.4 mb - 0.00 in0.0 mm 0.00 in0.0 mm
10:50 PM 40.9°F4.9°C 22.2°F-5.4°C 47% 1.2 mph W1.9 kmh W 2.3 mph3.7 kmh 30.34 in1027.4 mb - 0.00 in0.0 mm 0.00 in0.0 mm
11:00 PM 40.8°F4.9°C 22.1°F-5.5°C 47% Calm Calm 3.5 mph5.6 kmh 30.34 in1027.4 mb - 0.00 in0.0 mm 0.00 in0.0 mm
11:10 PM 40.5°F4.7°C 22.3°F-5.4°C 48% Calm Calm 1.2 mph1.9 kmh 30.34 in1027.4 mb - 0.00 in0.0 mm 0.00 in0.0 mm
11:20 PM 40.1°F4.5°C 22.0°F-5.6°C 48% Calm Calm 1.2 mph1.9 kmh 30.35 in1027.8 mb - 0.00 in0.0 mm 0.00 in0.0 mm
11:30 PM 39.7°F4.3°C 22.1°F-5.5°C 49% Calm Calm -- 30.35 in1027.8 mb - 0.00 in0.0 mm 0.00 in0.0 mm
11:40 PM 39.1°F3.9°C 22.0°F-5.6°C 50% Calm Calm -- 30.35 in1027.8 mb - 0.00 in0.0 mm 0.00 in0.0 mm
11:50 PM 38.7°F3.7°C 22.1°F-5.5°C 51% Calm Calm 1.2 mph1.9 kmh 30.35 in1027.8 mb - 0.00 in0.0 mm 0.00 in0.0 mm